sensor_id;sensor_type;location;lat;lon;timestamp;P1;durP1;ratioP1;P2;durP2;ratioP2
33902;SDS011;20194;50.950;5.346;2024-03-17T00:00:55;27.65;;;15.65;;
33902;SDS011;20194;50.950;5.346;2024-03-17T00:03:21;23.55;;;14.25;;
33902;SDS011;20194;50.950;5.346;2024-03-17T00:05:47;23.77;;;14.40;;
33902;SDS011;20194;50.950;5.346;2024-03-17T00:08:13;25.38;;;13.38;;
33902;SDS011;20194;50.950;5.346;2024-03-17T00:10:39;27.45;;;14.32;;
33902;SDS011;20194;50.950;5.346;2024-03-17T00:13:05;35.47;;;14.70;;
33902;SDS011;20194;50.950;5.346;2024-03-17T00:15:31;26.65;;;14.30;;
33902;SDS011;20194;50.950;5.346;2024-03-17T00:17:57;21.00;;;13.65;;
33902;SDS011;20194;50.950;5.346;2024-03-17T00:20:23;42.67;;;14.38;;
33902;SDS011;20194;50.950;5.346;2024-03-17T00:22:50;20.85;;;12.25;;
33902;SDS011;20194;50.950;5.346;2024-03-17T00:25:18;22.67;;;13.60;;
33902;SDS011;20194;50.950;5.346;2024-03-17T00:27:44;23.30;;;12.88;;
33902;SDS011;20194;50.950;5.346;2024-03-17T00:30:13;19.10;;;13.43;;
33902;SDS011;20194;50.950;5.346;2024-03-17T00:32:39;22.80;;;13.98;;
33902;SDS011;20194;50.950;5.346;2024-03-17T00:35:06;25.77;;;13.00;;
33902;SDS011;20194;50.950;5.346;2024-03-17T00:37:32;25.88;;;14.00;;
33902;SDS011;20194;50.950;5.346;2024-03-17T00:40:01;23.30;;;12.93;;
33902;SDS011;20194;50.950;5.346;2024-03-17T00:42:28;21.45;;;13.80;;
33902;SDS011;20194;50.950;5.346;2024-03-17T00:44:54;23.20;;;13.32;;
33902;SDS011;20194;50.950;5.346;2024-03-17T00:47:21;19.23;;;12.75;;
33902;SDS011;20194;50.950;5.346;2024-03-17T00:49:47;24.98;;;13.25;;
33902;SDS011;20194;50.950;5.346;2024-03-17T00:52:15;21.67;;;12.82;;
33902;SDS011;20194;50.950;5.346;2024-03-17T00:54:41;22.13;;;13.38;;
33902;SDS011;20194;50.950;5.346;2024-03-17T00:57:07;21.33;;;14.23;;
33902;SDS011;20194;50.950;5.346;2024-03-17T00:59:33;23.65;;;13.73;;
33902;SDS011;20194;50.950;5.346;2024-03-17T01:01:58;26.08;;;13.30;;
33902;SDS011;20194;50.950;5.346;2024-03-17T01:04:24;19.00;;;12.70;;
33902;SDS011;20194;50.950;5.346;2024-03-17T01:06:49;24.55;;;12.98;;
33902;SDS011;20194;50.950;5.346;2024-03-17T01:09:15;24.67;;;12.88;;
33902;SDS011;20194;50.950;5.346;2024-03-17T01:11:41;22.92;;;13.50;;
33902;SDS011;20194;50.950;5.346;2024-03-17T01:14:07;21.83;;;12.70;;
33902;SDS011;20194;50.950;5.346;2024-03-17T01:16:33;23.00;;;13.77;;
33902;SDS011;20194;50.950;5.346;2024-03-17T01:18:59;21.63;;;12.50;;
33902;SDS011;20194;50.950;5.346;2024-03-17T01:21:24;27.35;;;12.50;;
33902;SDS011;20194;50.950;5.346;2024-03-17T01:23:50;21.65;;;14.02;;
33902;SDS011;20194;50.950;5.346;2024-03-17T01:26:16;23.27;;;12.38;;
33902;SDS011;20194;50.950;5.346;2024-03-17T01:28:42;20.45;;;12.85;;
33902;SDS011;20194;50.950;5.346;2024-03-17T01:31:07;21.65;;;13.02;;
33902;SDS011;20194;50.950;5.346;2024-03-17T01:33:34;22.67;;;12.85;;
33902;SDS011;20194;50.950;5.346;2024-03-17T01:36:00;23.73;;;12.95;;
33902;SDS011;20194;50.950;5.346;2024-03-17T01:38:26;18.40;;;11.98;;
33902;SDS011;20194;50.950;5.346;2024-03-17T01:40:51;17.98;;;12.60;;
33902;SDS011;20194;50.950;5.346;2024-03-17T01:43:17;25.20;;;13.55;;
33902;SDS011;20194;50.950;5.346;2024-03-17T01:45:43;23.63;;;14.18;;
33902;SDS011;20194;50.950;5.346;2024-03-17T01:48:11;24.67;;;13.05;;
33902;SDS011;20194;50.950;5.346;2024-03-17T01:50:40;24.42;;;13.45;;
33902;SDS011;20194;50.950;5.346;2024-03-17T01:53:08;18.30;;;12.20;;
33902;SDS011;20194;50.950;5.346;2024-03-17T01:55:36;25.35;;;13.68;;
33902;SDS011;20194;50.950;5.346;2024-03-17T01:58:04;20.75;;;12.50;;
33902;SDS011;20194;50.950;5.346;2024-03-17T02:00:34;20.77;;;12.63;;
33902;SDS011;20194;50.950;5.346;2024-03-17T02:03:02;27.60;;;13.57;;
33902;SDS011;20194;50.950;5.346;2024-03-17T02:05:29;22.77;;;13.30;;
33902;SDS011;20194;50.950;5.346;2024-03-17T02:07:55;20.45;;;12.65;;
33902;SDS011;20194;50.950;5.346;2024-03-17T02:10:20;23.88;;;13.10;;
33902;SDS011;20194;50.950;5.346;2024-03-17T02:12:46;20.00;;;12.48;;
33902;SDS011;20194;50.950;5.346;2024-03-17T02:15:13;22.88;;;12.57;;
33902;SDS011;20194;50.950;5.346;2024-03-17T02:17:39;23.58;;;12.82;;
33902;SDS011;20194;50.950;5.346;2024-03-17T02:20:05;24.20;;;13.02;;
33902;SDS011;20194;50.950;5.346;2024-03-17T02:22:33;22.02;;;12.77;;
33902;SDS011;20194;50.950;5.346;2024-03-17T02:25:05;24.15;;;13.57;;
33902;SDS011;20194;50.950;5.346;2024-03-17T02:27:33;17.52;;;11.35;;
33902;SDS011;20194;50.950;5.346;2024-03-17T02:30:03;17.83;;;11.43;;
33902;SDS011;20194;50.950;5.346;2024-03-17T02:32:34;21.92;;;11.95;;
33902;SDS011;20194;50.950;5.346;2024-03-17T02:35:00;25.13;;;11.90;;
33902;SDS011;20194;50.950;5.346;2024-03-17T02:37:26;18.90;;;11.85;;
33902;SDS011;20194;50.950;5.346;2024-03-17T02:39:52;16.00;;;10.80;;
33902;SDS011;20194;50.950;5.346;2024-03-17T02:42:18;18.88;;;11.18;;
33902;SDS011;20194;50.950;5.346;2024-03-17T02:44:44;18.92;;;11.38;;
33902;SDS011;20194;50.950;5.346;2024-03-17T02:47:10;19.42;;;10.23;;
33902;SDS011;20194;50.950;5.346;2024-03-17T02:49:39;17.27;;;10.48;;
33902;SDS011;20194;50.950;5.346;2024-03-17T02:52:08;18.48;;;11.70;;
33902;SDS011;20194;50.950;5.346;2024-03-17T02:54:35;14.77;;;8.77;;
33902;SDS011;20194;50.950;5.346;2024-03-17T02:57:02;14.55;;;9.07;;
33902;SDS011;20194;50.950;5.346;2024-03-17T02:59:28;13.77;;;9.57;;
33902;SDS011;20194;50.950;5.346;2024-03-17T03:01:54;15.63;;;9.38;;
33902;SDS011;20194;50.950;5.346;2024-03-17T03:04:20;15.02;;;9.40;;
33902;SDS011;20194;50.950;5.346;2024-03-17T03:06:46;13.75;;;9.23;;
33902;SDS011;20194;50.950;5.346;2024-03-17T03:09:12;14.27;;;8.48;;
33902;SDS011;20194;50.950;5.346;2024-03-17T03:11:40;13.82;;;8.48;;
33902;SDS011;20194;50.950;5.346;2024-03-17T03:14:06;14.05;;;9.15;;
33902;SDS011;20194;50.950;5.346;2024-03-17T03:16:32;14.27;;;9.18;;
33902;SDS011;20194;50.950;5.346;2024-03-17T03:18:58;15.50;;;8.68;;
33902;SDS011;20194;50.950;5.346;2024-03-17T03:21:24;12.75;;;8.27;;
33902;SDS011;20194;50.950;5.346;2024-03-17T03:23:51;15.40;;;8.52;;
33902;SDS011;20194;50.950;5.346;2024-03-17T03:26:17;14.15;;;7.97;;
33902;SDS011;20194;50.950;5.346;2024-03-17T03:28:43;15.15;;;7.97;;
33902;SDS011;20194;50.950;5.346;2024-03-17T03:31:12;12.68;;;7.82;;
33902;SDS011;20194;50.950;5.346;2024-03-17T03:33:38;15.98;;;7.65;;
33902;SDS011;20194;50.950;5.346;2024-03-17T03:36:09;11.30;;;7.93;;
33902;SDS011;20194;50.950;5.346;2024-03-17T03:38:36;14.18;;;7.40;;
33902;SDS011;20194;50.950;5.346;2024-03-17T03:43:38;11.52;;;8.13;;
33902;SDS011;20194;50.950;5.346;2024-03-17T03:46:04;14.40;;;8.07;;
33902;SDS011;20194;50.950;5.346;2024-03-17T03:48:30;13.13;;;8.32;;
33902;SDS011;20194;50.950;5.346;2024-03-17T03:50:57;15.02;;;8.57;;
33902;SDS011;20194;50.950;5.346;2024-03-17T03:53:24;12.35;;;7.70;;
33902;SDS011;20194;50.950;5.346;2024-03-17T03:55:51;14.60;;;8.60;;
33902;SDS011;20194;50.950;5.346;2024-03-17T03:58:16;12.20;;;7.80;;
33902;SDS011;20194;50.950;5.346;2024-03-17T04:00:42;13.52;;;7.60;;
33902;SDS011;20194;50.950;5.346;2024-03-17T04:03:08;20.35;;;8.60;;
33902;SDS011;20194;50.950;5.346;2024-03-17T04:05:33;11.88;;;8.10;;
33902;SDS011;20194;50.950;5.346;2024-03-17T04:07:59;13.13;;;8.02;;
33902;SDS011;20194;50.950;5.346;2024-03-17T04:10:25;13.07;;;7.90;;
33902;SDS011;20194;50.950;5.346;2024-03-17T04:12:51;11.93;;;7.60;;
33902;SDS011;20194;50.950;5.346;2024-03-17T04:15:18;12.35;;;7.60;;
33902;SDS011;20194;50.950;5.346;2024-03-17T04:17:44;15.43;;;8.70;;
33902;SDS011;20194;50.950;5.346;2024-03-17T04:20:10;10.77;;;7.22;;
33902;SDS011;20194;50.950;5.346;2024-03-17T04:22:39;10.23;;;7.15;;
33902;SDS011;20194;50.950;5.346;2024-03-17T04:25:05;9.88;;;6.97;;
33902;SDS011;20194;50.950;5.346;2024-03-17T04:27:31;11.13;;;7.32;;
33902;SDS011;20194;50.950;5.346;2024-03-17T04:29:58;10.27;;;7.25;;
33902;SDS011;20194;50.950;5.346;2024-03-17T04:32:25;11.88;;;6.55;;
33902;SDS011;20194;50.950;5.346;2024-03-17T04:34:56;8.93;;;6.90;;
33902;SDS011;20194;50.950;5.346;2024-03-17T04:37:21;13.15;;;6.68;;
33902;SDS011;20194;50.950;5.346;2024-03-17T04:39:47;8.57;;;6.18;;
33902;SDS011;20194;50.950;5.346;2024-03-17T04:42:13;9.52;;;6.30;;
33902;SDS011;20194;50.950;5.346;2024-03-17T04:44:41;12.27;;;6.57;;
33902;SDS011;20194;50.950;5.346;2024-03-17T04:47:07;8.70;;;5.95;;
33902;SDS011;20194;50.950;5.346;2024-03-17T04:49:37;8.05;;;6.20;;
33902;SDS011;20194;50.950;5.346;2024-03-17T04:52:03;11.70;;;6.30;;
33902;SDS011;20194;50.950;5.346;2024-03-17T04:54:32;8.05;;;5.85;;
33902;SDS011;20194;50.950;5.346;2024-03-17T04:56:59;8.43;;;5.93;;
33902;SDS011;20194;50.950;5.346;2024-03-17T04:59:25;14.05;;;7.03;;
33902;SDS011;20194;50.950;5.346;2024-03-17T05:01:51;10.35;;;5.38;;
33902;SDS011;20194;50.950;5.346;2024-03-17T05:04:17;9.98;;;5.90;;
33902;SDS011;20194;50.950;5.346;2024-03-17T05:06:43;11.98;;;6.40;;
33902;SDS011;20194;50.950;5.346;2024-03-17T05:09:14;9.95;;;5.70;;
33902;SDS011;20194;50.950;5.346;2024-03-17T05:11:45;12.47;;;6.50;;
33902;SDS011;20194;50.950;5.346;2024-03-17T05:14:12;10.57;;;6.13;;
33902;SDS011;20194;50.950;5.346;2024-03-17T05:16:38;10.18;;;5.70;;
33902;SDS011;20194;50.950;5.346;2024-03-17T05:19:03;10.05;;;6.13;;
33902;SDS011;20194;50.950;5.346;2024-03-17T05:21:30;10.40;;;5.70;;
33902;SDS011;20194;50.950;5.346;2024-03-17T05:23:56;8.63;;;5.82;;
33902;SDS011;20194;50.950;5.346;2024-03-17T05:26:25;12.02;;;6.35;;
33902;SDS011;20194;50.950;5.346;2024-03-17T05:28:51;10.15;;;6.38;;
33902;SDS011;20194;50.950;5.346;2024-03-17T05:31:17;9.05;;;5.95;;
33902;SDS011;20194;50.950;5.346;2024-03-17T05:33:45;8.40;;;6.25;;
33902;SDS011;20194;50.950;5.346;2024-03-17T05:36:11;9.65;;;5.90;;
33902;SDS011;20194;50.950;5.346;2024-03-17T05:38:37;9.70;;;5.78;;
33902;SDS011;20194;50.950;5.346;2024-03-17T05:41:03;12.98;;;7.00;;
33902;SDS011;20194;50.950;5.346;2024-03-17T05:43:37;9.93;;;6.30;;
33902;SDS011;20194;50.950;5.346;2024-03-17T05:46:05;12.52;;;6.20;;
33902;SDS011;20194;50.950;5.346;2024-03-17T05:48:33;9.65;;;5.75;;
33902;SDS011;20194;50.950;5.346;2024-03-17T05:51:02;11.75;;;5.80;;
33902;SDS011;20194;50.950;5.346;2024-03-17T05:53:28;12.45;;;6.65;;
33902;SDS011;20194;50.950;5.346;2024-03-17T05:55:54;16.13;;;5.90;;
33902;SDS011;20194;50.950;5.346;2024-03-17T05:58:20;8.07;;;5.63;;
33902;SDS011;20194;50.950;5.346;2024-03-17T06:00:46;9.80;;;6.13;;
33902;SDS011;20194;50.950;5.346;2024-03-17T06:03:11;12.00;;;5.82;;
33902;SDS011;20194;50.950;5.346;2024-03-17T06:05:39;10.82;;;5.43;;
33902;SDS011;20194;50.950;5.346;2024-03-17T06:08:06;10.82;;;6.03;;
33902;SDS011;20194;50.950;5.346;2024-03-17T06:10:33;11.35;;;5.65;;
33902;SDS011;20194;50.950;5.346;2024-03-17T06:13:00;12.07;;;5.50;;
33902;SDS011;20194;50.950;5.346;2024-03-17T06:15:27;7.38;;;4.97;;
33902;SDS011;20194;50.950;5.346;2024-03-17T06:17:53;10.63;;;5.70;;
33902;SDS011;20194;50.950;5.346;2024-03-17T06:20:19;12.77;;;6.03;;
33902;SDS011;20194;50.950;5.346;2024-03-17T06:22:46;10.13;;;5.15;;
33902;SDS011;20194;50.950;5.346;2024-03-17T06:25:12;9.20;;;5.07;;
33902;SDS011;20194;50.950;5.346;2024-03-17T06:27:38;8.98;;;5.38;;
33902;SDS011;20194;50.950;5.346;2024-03-17T06:30:04;9.05;;;5.85;;
33902;SDS011;20194;50.950;5.346;2024-03-17T06:32:32;8.82;;;5.10;;
33902;SDS011;20194;50.950;5.346;2024-03-17T06:34:58;7.75;;;5.03;;
33902;SDS011;20194;50.950;5.346;2024-03-17T06:37:26;10.02;;;5.65;;
33902;SDS011;20194;50.950;5.346;2024-03-17T06:39:52;10.13;;;5.72;;
33902;SDS011;20194;50.950;5.346;2024-03-17T06:42:18;8.77;;;5.07;;
33902;SDS011;20194;50.950;5.346;2024-03-17T06:44:44;9.57;;;5.50;;
33902;SDS011;20194;50.950;5.346;2024-03-17T06:47:10;8.75;;;4.95;;
33902;SDS011;20194;50.950;5.346;2024-03-17T06:49:35;6.95;;;4.65;;
33902;SDS011;20194;50.950;5.346;2024-03-17T06:52:01;12.40;;;5.28;;
33902;SDS011;20194;50.950;5.346;2024-03-17T06:54:27;7.72;;;4.80;;
33902;SDS011;20194;50.950;5.346;2024-03-17T06:56:53;8.38;;;4.93;;
33902;SDS011;20194;50.950;5.346;2024-03-17T06:59:19;7.72;;;5.65;;
33902;SDS011;20194;50.950;5.346;2024-03-17T07:01:46;8.50;;;4.85;;
33902;SDS011;20194;50.950;5.346;2024-03-17T07:04:12;11.35;;;5.35;;
33902;SDS011;20194;50.950;5.346;2024-03-17T07:06:38;20.63;;;5.75;;
33902;SDS011;20194;50.950;5.346;2024-03-17T07:09:03;8.60;;;5.03;;
33902;SDS011;20194;50.950;5.346;2024-03-17T07:11:30;6.93;;;4.95;;
33902;SDS011;20194;50.950;5.346;2024-03-17T07:13:57;9.45;;;4.60;;
33902;SDS011;20194;50.950;5.346;2024-03-17T07:16:22;8.63;;;4.82;;
33902;SDS011;20194;50.950;5.346;2024-03-17T07:18:50;8.05;;;4.28;;
33902;SDS011;20194;50.950;5.346;2024-03-17T07:21:17;6.53;;;4.93;;
33902;SDS011;20194;50.950;5.346;2024-03-17T07:23:43;8.93;;;4.88;;
33902;SDS011;20194;50.950;5.346;2024-03-17T07:26:09;12.27;;;5.25;;
33902;SDS011;20194;50.950;5.346;2024-03-17T07:28:35;10.27;;;4.50;;
33902;SDS011;20194;50.950;5.346;2024-03-17T07:31:05;8.38;;;5.28;;
33902;SDS011;20194;50.950;5.346;2024-03-17T07:33:33;10.90;;;5.72;;
33902;SDS011;20194;50.950;5.346;2024-03-17T07:35:59;7.80;;;4.90;;
33902;SDS011;20194;50.950;5.346;2024-03-17T07:38:28;12.52;;;5.47;;
33902;SDS011;20194;50.950;5.346;2024-03-17T07:40:57;11.48;;;5.00;;
33902;SDS011;20194;50.950;5.346;2024-03-17T07:43:25;10.13;;;5.13;;
33902;SDS011;20194;50.950;5.346;2024-03-17T07:45:58;8.05;;;5.20;;
33902;SDS011;20194;50.950;5.346;2024-03-17T07:48:28;11.00;;;5.43;;
33902;SDS011;20194;50.950;5.346;2024-03-17T07:50:57;7.40;;;4.80;;
33902;SDS011;20194;50.950;5.346;2024-03-17T07:53:24;8.75;;;4.57;;
33902;SDS011;20194;50.950;5.346;2024-03-17T07:58:25;7.15;;;5.13;;
33902;SDS011;20194;50.950;5.346;2024-03-17T08:00:52;9.60;;;5.68;;
33902;SDS011;20194;50.950;5.346;2024-03-17T08:03:21;8.82;;;5.20;;
33902;SDS011;20194;50.950;5.346;2024-03-17T08:05:50;10.32;;;4.57;;
33902;SDS011;20194;50.950;5.346;2024-03-17T08:08:17;11.27;;;5.97;;
33902;SDS011;20194;50.950;5.346;2024-03-17T08:10:43;14.48;;;6.28;;
33902;SDS011;20194;50.950;5.346;2024-03-17T08:13:09;8.50;;;5.10;;
33902;SDS011;20194;50.950;5.346;2024-03-17T08:15:35;11.93;;;6.38;;
33902;SDS011;20194;50.950;5.346;2024-03-17T08:18:01;15.05;;;6.82;;
33902;SDS011;20194;50.950;5.346;2024-03-17T08:20:28;7.53;;;5.15;;
33902;SDS011;20194;50.950;5.346;2024-03-17T08:22:54;10.57;;;4.68;;
33902;SDS011;20194;50.950;5.346;2024-03-17T08:25:20;8.90;;;5.50;;
33902;SDS011;20194;50.950;5.346;2024-03-17T08:27:46;9.82;;;5.45;;
33902;SDS011;20194;50.950;5.346;2024-03-17T08:30:11;12.30;;;6.15;;
33902;SDS011;20194;50.950;5.346;2024-03-17T08:32:38;10.27;;;5.53;;
33902;SDS011;20194;50.950;5.346;2024-03-17T08:35:05;7.53;;;5.25;;
33902;SDS011;20194;50.950;5.346;2024-03-17T08:37:31;13.60;;;6.13;;
33902;SDS011;20194;50.950;5.346;2024-03-17T08:39:57;8.98;;;5.50;;
33902;SDS011;20194;50.950;5.346;2024-03-17T08:42:23;9.15;;;5.38;;
33902;SDS011;20194;50.950;5.346;2024-03-17T08:44:48;9.82;;;6.35;;
33902;SDS011;20194;50.950;5.346;2024-03-17T08:47:14;7.30;;;5.20;;
33902;SDS011;20194;50.950;5.346;2024-03-17T08:49:40;14.48;;;5.55;;
33902;SDS011;20194;50.950;5.346;2024-03-17T08:52:06;9.98;;;5.60;;
33902;SDS011;20194;50.950;5.346;2024-03-17T08:54:32;14.82;;;6.35;;
33902;SDS011;20194;50.950;5.346;2024-03-17T08:56:57;12.30;;;5.93;;
33902;SDS011;20194;50.950;5.346;2024-03-17T08:59:23;10.75;;;5.85;;
33902;SDS011;20194;50.950;5.346;2024-03-17T09:01:49;9.07;;;5.53;;
33902;SDS011;20194;50.950;5.346;2024-03-17T09:04:14;13.13;;;6.32;;
33902;SDS011;20194;50.950;5.346;2024-03-17T09:06:40;9.05;;;5.32;;
33902;SDS011;20194;50.950;5.346;2024-03-17T09:09:07;7.82;;;4.65;;
33902;SDS011;20194;50.950;5.346;2024-03-17T09:11:33;9.73;;;5.50;;
33902;SDS011;20194;50.950;5.346;2024-03-17T09:13:59;11.85;;;5.40;;
33902;SDS011;20194;50.950;5.346;2024-03-17T09:16:25;7.80;;;4.68;;
33902;SDS011;20194;50.950;5.346;2024-03-17T09:18:53;11.88;;;5.15;;
33902;SDS011;20194;50.950;5.346;2024-03-17T09:21:19;10.10;;;5.03;;
33902;SDS011;20194;50.950;5.346;2024-03-17T09:23:44;10.50;;;5.15;;
33902;SDS011;20194;50.950;5.346;2024-03-17T09:26:11;10.05;;;4.88;;
33902;SDS011;20194;50.950;5.346;2024-03-17T09:28:39;11.90;;;5.65;;
33902;SDS011;20194;50.950;5.346;2024-03-17T09:31:04;11.90;;;5.72;;
33902;SDS011;20194;50.950;5.346;2024-03-17T09:33:32;8.20;;;4.97;;
33902;SDS011;20194;50.950;5.346;2024-03-17T09:35:59;8.35;;;4.50;;
33902;SDS011;20194;50.950;5.346;2024-03-17T09:38:30;6.60;;;4.47;;
33902;SDS011;20194;50.950;5.346;2024-03-17T09:40:55;10.70;;;4.50;;
33902;SDS011;20194;50.950;5.346;2024-03-17T09:43:36;10.48;;;4.78;;
33902;SDS011;20194;50.950;5.346;2024-03-17T09:46:02;5.78;;;4.05;;
33902;SDS011;20194;50.950;5.346;2024-03-17T09:48:28;7.53;;;4.20;;
33902;SDS011;20194;50.950;5.346;2024-03-17T09:50:55;9.05;;;5.00;;
33902;SDS011;20194;50.950;5.346;2024-03-17T09:53:27;6.78;;;4.43;;
33902;SDS011;20194;50.950;5.346;2024-03-17T09:55:57;5.32;;;3.90;;
33902;SDS011;20194;50.950;5.346;2024-03-17T09:58:37;7.60;;;3.95;;
33902;SDS011;20194;50.950;5.346;2024-03-17T10:01:03;9.65;;;4.75;;
33902;SDS011;20194;50.950;5.346;2024-03-17T10:06:28;5.45;;;3.10;;
33902;SDS011;20194;50.950;5.346;2024-03-17T10:08:55;8.73;;;3.60;;
33902;SDS011;20194;50.950;5.346;2024-03-17T10:11:32;4.20;;;3.00;;
33902;SDS011;20194;50.950;5.346;2024-03-17T10:14:08;5.35;;;3.35;;
33902;SDS011;20194;50.950;5.346;2024-03-17T10:16:35;6.07;;;3.42;;
33902;SDS011;20194;50.950;5.346;2024-03-17T10:19:06;10.77;;;3.47;;
33902;SDS011;20194;50.950;5.346;2024-03-17T10:21:38;7.88;;;3.67;;
33902;SDS011;20194;50.950;5.346;2024-03-17T10:24:07;8.10;;;3.70;;
33902;SDS011;20194;50.950;5.346;2024-03-17T10:26:41;10.40;;;4.03;;
33902;SDS011;20194;50.950;5.346;2024-03-17T10:31:57;7.53;;;3.83;;
33902;SDS011;20194;50.950;5.346;2024-03-17T10:34:24;7.55;;;3.40;;
33902;SDS011;20194;50.950;5.346;2024-03-17T10:39:47;4.97;;;3.30;;
33902;SDS011;20194;50.950;5.346;2024-03-17T10:42:20;8.32;;;4.10;;
33902;SDS011;20194;50.950;5.346;2024-03-17T10:47:22;9.05;;;3.40;;
33902;SDS011;20194;50.950;5.346;2024-03-17T10:49:54;5.60;;;3.40;;
33902;SDS011;20194;50.950;5.346;2024-03-17T10:52:20;6.28;;;3.88;;
33902;SDS011;20194;50.950;5.346;2024-03-17T10:54:54;6.53;;;3.75;;
33902;SDS011;20194;50.950;5.346;2024-03-17T11:00:02;5.82;;;4.05;;
33902;SDS011;20194;50.950;5.346;2024-03-17T11:02:30;7.25;;;3.95;;
33902;SDS011;20194;50.950;5.346;2024-03-17T11:05:05;10.07;;;3.78;;
33902;SDS011;20194;50.950;5.346;2024-03-17T11:07:37;10.65;;;4.85;;
33902;SDS011;20194;50.950;5.346;2024-03-17T11:10:08;11.63;;;4.70;;
33902;SDS011;20194;50.950;5.346;2024-03-17T11:17:45;9.23;;;4.53;;
33902;SDS011;20194;50.950;5.346;2024-03-17T11:20:15;7.65;;;3.42;;
33902;SDS011;20194;50.950;5.346;2024-03-17T11:22:43;11.32;;;4.13;;
33902;SDS011;20194;50.950;5.346;2024-03-17T11:27:51;8.32;;;4.00;;
33902;SDS011;20194;50.950;5.346;2024-03-17T11:46:45;10.98;;;3.78;;
33902;SDS011;20194;50.950;5.346;2024-03-17T11:51:53;5.93;;;3.83;;
33902;SDS011;20194;50.950;5.346;2024-03-17T11:54:24;8.55;;;4.05;;
33902;SDS011;20194;50.950;5.346;2024-03-17T11:56:54;6.80;;;3.92;;
33902;SDS011;20194;50.950;5.346;2024-03-17T11:59:33;9.88;;;4.78;;
33902;SDS011;20194;50.950;5.346;2024-03-17T12:01:59;6.53;;;3.55;;
33902;SDS011;20194;50.950;5.346;2024-03-17T12:04:27;9.38;;;4.65;;
33902;SDS011;20194;50.950;5.346;2024-03-17T12:06:54;6.35;;;3.70;;
33902;SDS011;20194;50.950;5.346;2024-03-17T12:09:21;7.60;;;3.95;;
33902;SDS011;20194;50.950;5.346;2024-03-17T12:14:29;8.55;;;4.05;;
33902;SDS011;20194;50.950;5.346;2024-03-17T12:19:22;6.22;;;3.80;;
33902;SDS011;20194;50.950;5.346;2024-03-17T12:21:52;7.80;;;4.03;;
33902;SDS011;20194;50.950;5.346;2024-03-17T12:24:22;8.10;;;4.28;;
33902;SDS011;20194;50.950;5.346;2024-03-17T12:26:56;7.97;;;3.40;;
33902;SDS011;20194;50.950;5.346;2024-03-17T12:34:32;8.90;;;3.90;;
33902;SDS011;20194;50.950;5.346;2024-03-17T12:37:01;6.63;;;2.95;;
33902;SDS011;20194;50.950;5.346;2024-03-17T12:39:29;6.35;;;2.70;;
33902;SDS011;20194;50.950;5.346;2024-03-17T12:44:32;13.82;;;3.22;;
33902;SDS011;20194;50.950;5.346;2024-03-17T12:47:08;4.50;;;2.50;;
33902;SDS011;20194;50.950;5.346;2024-03-17T12:52:17;7.07;;;3.22;;
33902;SDS011;20194;50.950;5.346;2024-03-17T12:55:00;4.57;;;2.47;;
33902;SDS011;20194;50.950;5.346;2024-03-17T12:57:49;4.60;;;2.80;;
33902;SDS011;20194;50.950;5.346;2024-03-17T13:03:25;7.80;;;2.95;;
33902;SDS011;20194;50.950;5.346;2024-03-17T13:05:52;9.10;;;3.33;;
33902;SDS011;20194;50.950;5.346;2024-03-17T13:08:18;7.80;;;3.05;;
33902;SDS011;20194;50.950;5.346;2024-03-17T13:10:43;6.22;;;3.05;;
33902;SDS011;20194;50.950;5.346;2024-03-17T13:13:10;7.15;;;3.63;;
33902;SDS011;20194;50.950;5.346;2024-03-17T13:15:40;10.15;;;3.53;;
33902;SDS011;20194;50.950;5.346;2024-03-17T13:18:07;10.98;;;2.78;;
33902;SDS011;20194;50.950;5.346;2024-03-17T13:20:32;4.95;;;2.90;;
33902;SDS011;20194;50.950;5.346;2024-03-17T13:22:59;7.38;;;3.78;;
33902;SDS011;20194;50.950;5.346;2024-03-17T13:25:26;7.47;;;3.00;;
33902;SDS011;20194;50.950;5.346;2024-03-17T13:27:58;5.85;;;2.83;;
33902;SDS011;20194;50.950;5.346;2024-03-17T13:30:24;5.78;;;2.90;;
33902;SDS011;20194;50.950;5.346;2024-03-17T13:32:52;8.85;;;3.05;;
33902;SDS011;20194;50.950;5.346;2024-03-17T13:35:25;5.28;;;2.92;;
33902;SDS011;20194;50.950;5.346;2024-03-17T13:37:52;5.25;;;2.88;;
33902;SDS011;20194;50.950;5.346;2024-03-17T13:40:23;12.50;;;3.85;;
33902;SDS011;20194;50.950;5.346;2024-03-17T13:42:49;6.72;;;3.17;;
33902;SDS011;20194;50.950;5.346;2024-03-17T13:45:17;6.07;;;2.92;;
33902;SDS011;20194;50.950;5.346;2024-03-17T13:47:58;8.70;;;3.10;;
33902;SDS011;20194;50.950;5.346;2024-03-17T13:50:25;5.63;;;2.60;;
33902;SDS011;20194;50.950;5.346;2024-03-17T13:52:51;5.28;;;2.55;;
33902;SDS011;20194;50.950;5.346;2024-03-17T13:55:21;7.68;;;3.28;;
33902;SDS011;20194;50.950;5.346;2024-03-17T13:57:54;18.27;;;3.00;;
33902;SDS011;20194;50.950;5.346;2024-03-17T14:00:22;6.15;;;2.40;;
33902;SDS011;20194;50.950;5.346;2024-03-17T14:02:49;7.90;;;2.53;;
33902;SDS011;20194;50.950;5.346;2024-03-17T14:05:16;5.93;;;2.63;;
33902;SDS011;20194;50.950;5.346;2024-03-17T14:07:46;8.32;;;2.70;;
33902;SDS011;20194;50.950;5.346;2024-03-17T14:10:18;5.57;;;2.10;;
33902;SDS011;20194;50.950;5.346;2024-03-17T14:12:44;6.40;;;2.60;;
33902;SDS011;20194;50.950;5.346;2024-03-17T14:15:11;5.13;;;2.30;;
33902;SDS011;20194;50.950;5.346;2024-03-17T14:17:38;5.80;;;2.58;;
33902;SDS011;20194;50.950;5.346;2024-03-17T14:20:11;4.30;;;2.30;;
33902;SDS011;20194;50.950;5.346;2024-03-17T14:22:39;8.18;;;2.45;;
33902;SDS011;20194;50.950;5.346;2024-03-17T14:25:07;4.90;;;2.25;;
33902;SDS011;20194;50.950;5.346;2024-03-17T14:27:37;5.78;;;2.35;;
33902;SDS011;20194;50.950;5.346;2024-03-17T14:30:04;5.35;;;1.95;;
33902;SDS011;20194;50.950;5.346;2024-03-17T14:32:30;5.32;;;2.80;;
33902;SDS011;20194;50.950;5.346;2024-03-17T14:34:56;3.20;;;2.03;;
33902;SDS011;20194;50.950;5.346;2024-03-17T14:37:22;9.05;;;2.92;;
33902;SDS011;20194;50.950;5.346;2024-03-17T14:39:48;7.18;;;2.50;;
33902;SDS011;20194;50.950;5.346;2024-03-17T14:42:14;7.53;;;2.80;;
33902;SDS011;20194;50.950;5.346;2024-03-17T14:44:40;5.90;;;2.50;;
33902;SDS011;20194;50.950;5.346;2024-03-17T14:47:06;3.67;;;2.33;;
33902;SDS011;20194;50.950;5.346;2024-03-17T14:49:32;5.43;;;2.75;;
33902;SDS011;20194;50.950;5.346;2024-03-17T14:51:59;3.75;;;2.50;;
33902;SDS011;20194;50.950;5.346;2024-03-17T14:54:25;7.68;;;2.97;;
33902;SDS011;20194;50.950;5.346;2024-03-17T14:56:51;7.80;;;2.13;;
33902;SDS011;20194;50.950;5.346;2024-03-17T14:59:18;4.43;;;2.33;;
33902;SDS011;20194;50.950;5.346;2024-03-17T15:01:47;8.40;;;2.13;;
33902;SDS011;20194;50.950;5.346;2024-03-17T15:04:14;6.07;;;2.90;;
33902;SDS011;20194;50.950;5.346;2024-03-17T15:06:43;5.88;;;2.75;;
33902;SDS011;20194;50.950;5.346;2024-03-17T15:09:09;3.97;;;2.60;;
33902;SDS011;20194;50.950;5.346;2024-03-17T15:11:34;3.83;;;2.15;;
33902;SDS011;20194;50.950;5.346;2024-03-17T15:14:00;5.82;;;2.75;;
33902;SDS011;20194;50.950;5.346;2024-03-17T15:16:26;4.45;;;1.92;;
33902;SDS011;20194;50.950;5.346;2024-03-17T15:18:52;5.30;;;2.17;;
33902;SDS011;20194;50.950;5.346;2024-03-17T15:21:18;8.80;;;2.75;;
33902;SDS011;20194;50.950;5.346;2024-03-17T15:23:44;5.97;;;2.45;;
33902;SDS011;20194;50.950;5.346;2024-03-17T15:26:10;6.22;;;2.35;;
33902;SDS011;20194;50.950;5.346;2024-03-17T15:28:41;4.82;;;2.08;;
33902;SDS011;20194;50.950;5.346;2024-03-17T15:31:08;5.57;;;1.92;;
33902;SDS011;20194;50.950;5.346;2024-03-17T15:33:35;2.65;;;1.80;;
33902;SDS011;20194;50.950;5.346;2024-03-17T15:36:07;7.43;;;2.50;;
33902;SDS011;20194;50.950;5.346;2024-03-17T15:38:34;4.10;;;1.90;;
33902;SDS011;20194;50.950;5.346;2024-03-17T15:41:05;2.45;;;1.77;;
33902;SDS011;20194;50.950;5.346;2024-03-17T15:43:40;6.88;;;2.72;;